createdAt,value
2023-09-06T00:01:18.805Z,20.81
2023-09-06T00:03:45.556Z,20.78
2023-09-06T00:06:12.241Z,20.61
2023-09-06T00:08:38.759Z,20.52
2023-09-06T00:11:06.694Z,20.37
2023-09-06T00:13:35.003Z,20.29
2023-09-06T00:16:03.329Z,20.22
2023-09-06T00:18:30.359Z,20.17
2023-09-06T00:20:58.923Z,20.19
2023-09-06T00:23:26.548Z,20.08
2023-09-06T00:25:55.025Z,19.99
2023-09-06T00:28:21.746Z,19.89
2023-09-06T00:30:48.471Z,19.75
2023-09-06T00:33:15.078Z,19.65
2023-09-06T00:35:41.850Z,19.62
2023-09-06T00:38:09.431Z,19.59
2023-09-06T00:40:37.626Z,19.54
2023-09-06T00:43:09.010Z,19.57
2023-09-06T00:45:40.809Z,19.57
2023-09-06T00:48:09.089Z,19.61
2023-09-06T00:50:37.174Z,19.68
2023-09-06T00:53:08.501Z,19.64
2023-09-06T00:55:37.542Z,19.53
2023-09-06T00:58:07.306Z,19.51
2023-09-06T01:00:34.500Z,19.46
2023-09-06T01:03:01.475Z,19.41
2023-09-06T01:05:32.420Z,19.36
2023-09-06T01:08:04.308Z,19.37
2023-09-06T01:10:30.848Z,19.42
2023-09-06T01:12:57.433Z,19.49
2023-09-06T01:15:24.085Z,19.47
2023-09-06T01:17:53.461Z,19.34
2023-09-06T01:20:30.562Z,19.27
2023-09-06T01:23:26.325Z,19.26
2023-09-06T01:25:53.741Z,19.20
2023-09-06T01:28:20.553Z,19.18
2023-09-06T01:30:48.048Z,19.13
2023-09-06T01:33:17.393Z,19.04
2023-09-06T01:35:43.975Z,19.04
2023-09-06T01:38:10.486Z,18.98
2023-09-06T01:40:37.124Z,18.88
2023-09-06T01:43:04.160Z,18.83
2023-09-06T01:45:30.756Z,18.76
2023-09-06T01:47:57.332Z,18.70
2023-09-06T01:50:23.905Z,18.62
2023-09-06T01:52:50.523Z,18.57
2023-09-06T01:55:17.108Z,18.51
2023-09-06T01:57:43.737Z,18.56
2023-09-06T02:00:28.659Z,18.65
2023-09-06T02:02:56.424Z,18.71
2023-09-06T02:05:23.526Z,18.69
2023-09-06T02:07:50.725Z,18.60
2023-09-06T02:10:17.955Z,18.63
2023-09-06T02:12:45.592Z,18.61
2023-09-06T02:15:15.160Z,18.59
2023-09-06T02:17:46.118Z,18.54
2023-09-06T02:20:18.661Z,18.51
2023-09-06T02:22:47.990Z,18.45
2023-09-06T02:25:16.458Z,18.42
2023-09-06T02:27:43.140Z,18.47
2023-09-06T02:30:10.120Z,18.58
2023-09-06T02:32:36.912Z,18.51
2023-09-06T02:35:04.094Z,18.50
2023-09-06T02:37:30.653Z,18.44
2023-09-06T02:39:57.197Z,18.30
2023-09-06T02:42:24.131Z,18.23
2023-09-06T02:44:52.038Z,18.23
2023-09-06T02:47:18.859Z,18.34
2023-09-06T02:49:47.068Z,18.22
2023-09-06T02:52:29.363Z,18.11
2023-09-06T02:54:59.368Z,18.21
2023-09-06T02:57:31.241Z,18.16
2023-09-06T02:59:58.147Z,18.18
2023-09-06T03:02:24.786Z,18.28
2023-09-06T03:05:05.205Z,18.27
2023-09-06T03:07:35.381Z,18.30
2023-09-06T03:10:03.006Z,18.33
2023-09-06T03:12:30.351Z,18.34
2023-09-06T03:14:56.886Z,18.18
2023-09-06T03:17:24.000Z,18.14
2023-09-06T03:20:00.716Z,18.21
2023-09-06T03:22:29.432Z,18.17
2023-09-06T03:24:56.537Z,18.19
2023-09-06T03:27:23.184Z,18.20
2023-09-06T03:29:52.087Z,18.19
2023-09-06T03:32:19.305Z,18.14
2023-09-06T03:34:46.582Z,18.13
2023-09-06T03:37:19.471Z,18.11
2023-09-06T03:39:47.566Z,18.17
2023-09-06T03:42:16.300Z,18.22
2023-09-06T03:44:43.997Z,18.22
2023-09-06T03:47:20.948Z,18.29
2023-09-06T03:49:47.853Z,18.35
2023-09-06T03:52:17.473Z,18.33
2023-09-06T03:54:44.069Z,18.25
2023-09-06T03:57:14.289Z,18.21
2023-09-06T03:59:42.005Z,18.30
2023-09-06T04:02:14.395Z,18.31
2023-09-06T04:04:41.059Z,18.26
2023-09-06T04:07:08.984Z,18.33
2023-09-06T04:09:38.561Z,18.38
2023-09-06T04:12:08.698Z,18.42
2023-09-06T04:14:40.020Z,18.47
2023-09-06T04:17:08.395Z,18.48
2023-09-06T04:19:37.852Z,18.49
2023-09-06T04:22:04.573Z,18.40
2023-09-06T04:24:31.082Z,18.42
2023-09-06T04:26:57.568Z,18.49
2023-09-06T04:29:25.508Z,18.50
2023-09-06T04:31:52.102Z,18.41
2023-09-06T04:34:18.652Z,18.28
2023-09-06T04:36:45.184Z,18.25
2023-09-06T04:39:11.834Z,18.21
2023-09-06T04:41:38.321Z,18.22
2023-09-06T04:44:05.306Z,18.21
2023-09-06T04:46:31.916Z,18.19
2023-09-06T04:48:58.632Z,18.12
2023-09-06T04:51:25.186Z,18.09
2023-09-06T04:53:51.751Z,18.12
2023-09-06T04:56:18.284Z,18.13
2023-09-06T04:58:46.092Z,18.15
2023-09-06T05:01:12.694Z,18.16
2023-09-06T05:03:39.474Z,18.20
2023-09-06T05:06:06.266Z,18.23
2023-09-06T05:08:33.888Z,18.26
2023-09-06T05:11:00.495Z,18.28
2023-09-06T05:13:29.833Z,18.29
2023-09-06T05:16:01.933Z,18.33
2023-09-06T05:18:28.766Z,18.35
2023-09-06T05:20:57.146Z,18.33
2023-09-06T05:23:23.750Z,18.37
2023-09-06T05:25:52.199Z,18.38
2023-09-06T05:28:20.045Z,18.38
2023-09-06T05:30:47.832Z,18.38
2023-09-06T05:33:16.117Z,18.39
2023-09-06T05:35:43.966Z,18.43
2023-09-06T05:38:10.656Z,18.43
2023-09-06T05:40:37.451Z,18.45
2023-09-06T05:43:05.171Z,18.46
2023-09-06T05:45:31.899Z,18.52
2023-09-06T05:47:58.591Z,18.56
2023-09-06T05:50:25.276Z,18.62
2023-09-06T05:52:51.779Z,18.65
2023-09-06T05:55:18.520Z,18.63
2023-09-06T05:57:45.253Z,18.63
2023-09-06T06:00:16.860Z,18.67
2023-09-06T06:02:45.747Z,18.76
2023-09-06T06:05:13.310Z,18.78
2023-09-06T06:07:40.724Z,18.83
2023-09-06T06:10:12.096Z,18.87
2023-09-06T06:12:40.242Z,18.91
2023-09-06T06:15:09.578Z,18.99
2023-09-06T06:17:37.155Z,19.06
2023-09-06T06:20:12.320Z,19.11
2023-09-06T06:22:40.928Z,19.17
2023-09-06T06:25:11.936Z,19.19
2023-09-06T06:27:40.072Z,19.25
2023-09-06T06:30:12.284Z,19.29
2023-09-06T06:32:39.508Z,19.35
2023-09-06T06:35:07.692Z,19.40
2023-09-06T06:37:35.201Z,19.44
2023-09-06T06:40:01.945Z,19.51
2023-09-06T06:42:28.673Z,19.55
2023-09-06T06:44:55.649Z,19.64
2023-09-06T06:47:22.955Z,19.70
2023-09-06T06:49:53.374Z,19.76
2023-09-06T06:52:20.044Z,19.80
2023-09-06T06:54:47.830Z,19.87
2023-09-06T06:57:14.369Z,19.92
2023-09-06T06:59:41.072Z,19.98
2023-09-06T07:02:07.630Z,20.04
2023-09-06T07:04:34.230Z,20.12
2023-09-06T07:07:00.810Z,20.19
2023-09-06T07:09:27.837Z,20.26
2023-09-06T07:11:54.499Z,20.35
2023-09-06T07:14:22.048Z,20.42
2023-09-06T07:16:48.937Z,20.49
2023-09-06T07:19:15.857Z,20.55
2023-09-06T07:21:44.097Z,20.64
2023-09-06T07:24:11.318Z,20.73
2023-09-06T07:26:38.187Z,20.81
2023-09-06T07:29:04.834Z,20.89
2023-09-06T07:31:31.504Z,20.99
2023-09-06T07:33:59.350Z,21.09
2023-09-06T07:36:25.951Z,21.19
2023-09-06T07:38:56.455Z,21.26
2023-09-06T07:41:23.355Z,21.40
2023-09-06T07:43:50.285Z,21.49
2023-09-06T07:46:16.853Z,21.60
2023-09-06T07:48:44.247Z,21.72
2023-09-06T07:51:12.150Z,21.83
2023-09-06T07:56:07.493Z,22.02
2023-09-06T07:58:34.590Z,22.09
2023-09-06T08:03:31.353Z,22.31
2023-09-06T08:05:58.415Z,22.40
2023-09-06T08:08:25.087Z,22.45
2023-09-06T08:10:51.634Z,22.56
2023-09-06T08:13:18.171Z,22.66
2023-09-06T08:15:45.341Z,22.80
2023-09-06T08:18:12.071Z,22.94
2023-09-06T08:20:38.770Z,23.05
2023-09-06T08:23:05.418Z,23.16
2023-09-06T08:25:35.083Z,23.34
2023-09-06T08:28:01.707Z,23.53
2023-09-06T08:30:28.620Z,23.63
2023-09-06T08:32:56.453Z,23.69
2023-09-06T08:35:24.463Z,23.74
2023-09-06T08:37:51.671Z,23.89
2023-09-06T08:40:19.814Z,23.98
2023-09-06T08:42:46.546Z,24.11
2023-09-06T08:45:13.097Z,24.25
2023-09-06T08:47:40.986Z,24.35
2023-09-06T08:50:11.592Z,24.42
2023-09-06T08:52:44.778Z,24.58
2023-09-06T08:55:12.512Z,24.71
2023-09-06T08:57:40.653Z,24.82
2023-09-06T09:00:11.234Z,24.83
2023-09-06T09:02:43.647Z,24.91
2023-09-06T09:05:19.657Z,24.95
2023-09-06T09:07:51.013Z,25.07
2023-09-06T09:10:17.879Z,25.17
2023-09-06T09:12:44.596Z,25.25
2023-09-06T09:15:22.570Z,25.27
2023-09-06T09:18:00.124Z,25.27
2023-09-06T09:20:28.655Z,25.41
2023-09-06T09:23:02.340Z,25.45
2023-09-06T09:25:29.235Z,25.48
2023-09-06T09:27:57.916Z,25.52
2023-09-06T09:30:25.553Z,25.55
2023-09-06T09:33:03.055Z,25.58
2023-09-06T09:35:32.571Z,25.59
2023-09-06T09:38:01.143Z,25.61
2023-09-06T09:40:51.687Z,25.63
2023-09-06T09:43:20.539Z,25.57
2023-09-06T09:45:48.337Z,25.54
2023-09-06T09:48:17.103Z,25.57
2023-09-06T09:50:45.225Z,25.57
2023-09-06T09:55:49.378Z,25.54
2023-09-06T09:58:17.180Z,25.54
2023-09-06T10:00:44.498Z,25.50
2023-09-06T10:03:11.782Z,25.43
2023-09-06T10:05:39.324Z,25.47
2023-09-06T10:08:09.048Z,25.45
2023-09-06T10:10:38.665Z,25.42
2023-09-06T10:13:08.931Z,25.38
2023-09-06T10:15:37.041Z,25.36
2023-09-06T10:18:05.802Z,25.34
2023-09-06T10:20:35.883Z,25.36
2023-09-06T10:23:02.597Z,25.38
2023-09-06T10:25:29.515Z,25.36
2023-09-06T10:27:57.355Z,25.39
2023-09-06T10:30:30.336Z,25.41
2023-09-06T10:32:57.100Z,25.40
2023-09-06T10:35:31.328Z,25.37
2023-09-06T10:38:17.084Z,25.40
2023-09-06T10:40:52.544Z,25.44
2023-09-06T10:43:30.326Z,25.52
2023-09-06T10:46:06.448Z,25.59
2023-09-06T10:48:33.626Z,25.59
2023-09-06T10:51:07.756Z,25.57
2023-09-06T10:53:37.991Z,25.55
2023-09-06T10:56:06.462Z,25.55
2023-09-06T10:58:38.044Z,25.62
2023-09-06T11:01:19.941Z,25.66
2023-09-06T11:03:52.387Z,25.68
2023-09-06T11:06:20.332Z,25.75
2023-09-06T11:08:48.346Z,25.78
2023-09-06T11:11:15.510Z,25.81
2023-09-06T11:13:45.977Z,25.86
2023-09-06T11:16:17.245Z,25.91
2023-09-06T11:18:48.336Z,25.97
2023-09-06T11:21:21.841Z,26.05
2023-09-06T11:23:53.762Z,26.06
2023-09-06T11:26:20.760Z,26.10
2023-09-06T11:28:51.748Z,26.15
2023-09-06T11:31:26.924Z,26.18
2023-09-06T11:34:04.936Z,26.20
2023-09-06T11:36:33.481Z,26.21
2023-09-06T11:39:33.822Z,26.25
2023-09-06T11:42:02.424Z,26.26
2023-09-06T11:44:29.258Z,26.33
2023-09-06T11:46:55.868Z,26.34
2023-09-06T11:49:26.280Z,26.39
2023-09-06T11:51:55.239Z,26.47
2023-09-06T11:54:27.991Z,26.49
2023-09-06T11:56:55.278Z,26.53
2023-09-06T11:59:23.490Z,26.56
2023-09-06T12:01:58.247Z,26.51
2023-09-06T12:04:27.819Z,26.51
2023-09-06T12:06:56.666Z,26.57
2023-09-06T12:09:24.887Z,26.62
2023-09-06T12:11:52.469Z,26.67
2023-09-06T12:14:19.073Z,26.73
2023-09-06T12:16:45.964Z,26.76
2023-09-06T12:19:13.666Z,26.75
2023-09-06T12:21:40.378Z,26.82
2023-09-06T12:24:07.022Z,26.87
2023-09-06T12:26:34.586Z,26.86
2023-09-06T12:29:03.836Z,26.81
2023-09-06T12:31:31.799Z,26.91
2023-09-06T12:33:58.496Z,26.94
2023-09-06T12:36:25.716Z,26.95
2023-09-06T12:38:53.355Z,26.96
2023-09-06T12:41:20.076Z,26.97
2023-09-06T12:43:47.504Z,26.97
2023-09-06T12:46:14.436Z,27.05
2023-09-06T12:48:43.729Z,27.07
2023-09-06T12:51:11.148Z,27.12
2023-09-06T12:53:37.819Z,27.18
2023-09-06T12:56:04.692Z,27.25
2023-09-06T12:58:31.825Z,27.41
2023-09-06T13:00:59.061Z,27.47
2023-09-06T13:03:26.068Z,27.46
2023-09-06T13:05:53.005Z,27.43
2023-09-06T13:08:20.909Z,27.50
2023-09-06T13:10:48.136Z,27.54
2023-09-06T13:13:14.750Z,27.60
2023-09-06T13:15:41.365Z,27.68
2023-09-06T13:18:08.678Z,27.70
2023-09-06T13:20:35.498Z,27.77
2023-09-06T13:23:02.353Z,27.92
2023-09-06T13:25:29.045Z,28.10
2023-09-06T13:27:55.744Z,28.20
2023-09-06T13:30:22.416Z,28.24
2023-09-06T13:32:49.149Z,28.26
2023-09-06T13:35:15.819Z,28.30
2023-09-06T13:37:42.364Z,28.43
2023-09-06T13:40:09.806Z,28.54
2023-09-06T13:42:36.572Z,28.59
2023-09-06T13:45:03.877Z,28.59
2023-09-06T13:47:30.460Z,28.62
2023-09-06T13:49:58.688Z,28.66
2023-09-06T13:52:25.292Z,28.68
2023-09-06T13:54:51.944Z,28.67
2023-09-06T13:57:18.459Z,28.63
2023-09-06T13:59:44.973Z,28.61
2023-09-06T14:02:11.631Z,28.55
2023-09-06T14:04:38.739Z,28.50
2023-09-06T14:07:05.350Z,28.48
2023-09-06T14:09:32.051Z,28.46
2023-09-06T14:11:58.731Z,28.38
2023-09-06T14:14:25.302Z,28.30
2023-09-06T14:16:52.421Z,28.26
2023-09-06T14:19:19.088Z,28.27
2023-09-06T14:21:48.282Z,28.27
2023-09-06T14:24:18.582Z,28.21
2023-09-06T14:26:45.211Z,28.18
2023-09-06T14:29:13.474Z,28.18
2023-09-06T14:31:40.682Z,28.14
2023-09-06T14:34:07.383Z,28.12
2023-09-06T14:36:34.018Z,28.18
2023-09-06T14:39:02.460Z,28.15
2023-09-06T14:41:30.569Z,28.16
2023-09-06T14:43:58.616Z,28.16
2023-09-06T14:46:25.566Z,28.18
2023-09-06T14:48:53.239Z,28.23
2023-09-06T14:51:20.186Z,28.26
2023-09-06T14:53:46.952Z,28.22
2023-09-06T14:56:16.161Z,28.25
2023-09-06T14:58:43.323Z,28.24
2023-09-06T15:01:09.986Z,28.15
2023-09-06T15:03:36.834Z,28.05
2023-09-06T15:06:07.619Z,28.01
2023-09-06T15:08:34.302Z,27.98
2023-09-06T15:11:01.082Z,28.00
2023-09-06T15:13:27.955Z,28.00
2023-09-06T15:15:55.131Z,27.95
2023-09-06T15:18:21.998Z,27.96
2023-09-06T15:20:49.340Z,27.95
2023-09-06T15:23:16.262Z,27.89
2023-09-06T15:25:45.243Z,27.88
2023-09-06T15:28:12.088Z,27.88
2023-09-06T15:30:38.836Z,27.86
2023-09-06T15:33:05.848Z,27.87
2023-09-06T15:35:32.599Z,27.90
2023-09-06T15:38:12.735Z,27.83
2023-09-06T15:40:39.764Z,27.76
2023-09-06T15:43:06.745Z,27.75
2023-09-06T15:45:33.851Z,27.71
2023-09-06T15:48:00.927Z,27.69
2023-09-06T15:50:29.637Z,27.67
2023-09-06T15:52:56.860Z,27.69
2023-09-06T15:55:23.941Z,27.68
2023-09-06T15:57:51.178Z,27.70
2023-09-06T16:00:30.939Z,27.67
2023-09-06T16:02:59.590Z,27.67
2023-09-06T16:05:26.622Z,27.67
2023-09-06T16:07:54.543Z,27.65
2023-09-06T16:10:21.324Z,27.65
2023-09-06T16:12:49.767Z,27.66
2023-09-06T16:15:18.220Z,27.65
2023-09-06T16:17:46.310Z,27.60
2023-09-06T16:20:13.542Z,27.56
2023-09-06T16:22:40.212Z,27.53
2023-09-06T16:25:09.198Z,27.51
2023-09-06T16:27:36.026Z,27.52
2023-09-06T16:30:06.800Z,27.49
2023-09-06T16:32:33.832Z,27.47
2023-09-06T16:35:00.971Z,27.46
2023-09-06T16:37:27.701Z,27.44
2023-09-06T16:39:54.328Z,27.45
2023-09-06T16:42:22.380Z,27.43
2023-09-06T16:44:49.015Z,27.52
2023-09-06T16:47:15.603Z,27.53
2023-09-06T16:49:48.285Z,27.44
2023-09-06T16:52:15.471Z,27.36
2023-09-06T16:54:42.157Z,27.28
2023-09-06T16:57:08.808Z,27.22
2023-09-06T16:59:35.366Z,27.17
2023-09-06T17:02:01.992Z,27.15
2023-09-06T17:04:28.589Z,27.12
2023-09-06T17:06:55.210Z,27.11
2023-09-06T17:09:21.802Z,27.07
2023-09-06T17:11:48.370Z,27.04
2023-09-06T17:14:15.059Z,27.01
2023-09-06T17:16:42.268Z,27.01
2023-09-06T17:19:11.046Z,26.99
2023-09-06T17:21:41.124Z,26.94
2023-09-06T17:24:09.832Z,26.87
2023-09-06T17:26:42.727Z,26.85
2023-09-06T17:29:15.892Z,26.79
2023-09-06T17:31:48.954Z,26.80
2023-09-06T17:34:15.674Z,26.76
2023-09-06T17:36:42.647Z,26.72
2023-09-06T17:39:10.760Z,26.71
2023-09-06T17:41:39.024Z,26.65
2023-09-06T17:44:07.469Z,26.59
2023-09-06T17:46:35.109Z,26.51
2023-09-06T17:49:03.008Z,26.51
2023-09-06T17:51:31.680Z,26.56
2023-09-06T17:54:00.344Z,26.54
2023-09-06T17:56:28.064Z,26.50
2023-09-06T17:58:55.303Z,26.60
2023-09-06T18:01:24.121Z,27.37
2023-09-06T18:03:58.725Z,27.62
2023-09-06T18:06:27.119Z,27.13
2023-09-06T18:08:59.329Z,26.78
2023-09-06T18:11:26.360Z,26.54
2023-09-06T18:13:53.550Z,26.36
2023-09-06T18:16:21.231Z,26.22
2023-09-06T18:18:49.492Z,26.10
2023-09-06T18:21:17.517Z,25.98
2023-09-06T18:23:45.987Z,25.90
2023-09-06T18:26:13.538Z,25.81
2023-09-06T18:28:41.093Z,25.68
2023-09-06T18:31:08.818Z,25.53
2023-09-06T18:33:35.644Z,25.36
2023-09-06T18:36:02.313Z,25.29
2023-09-06T18:38:29.382Z,25.14
2023-09-06T18:40:59.603Z,25.01
2023-09-06T18:43:26.420Z,24.99
2023-09-06T18:45:53.143Z,24.98
2023-09-06T18:48:23.325Z,24.96
2023-09-06T18:50:51.131Z,24.82
2023-09-06T18:53:18.005Z,24.61
2023-09-06T18:55:48.387Z,24.48
2023-09-06T18:58:18.385Z,24.33
2023-09-06T19:00:45.328Z,24.19
2023-09-06T19:03:15.069Z,24.10
2023-09-06T19:05:43.297Z,24.13
2023-09-06T19:08:15.710Z,24.01
2023-09-06T19:10:43.432Z,23.92
2023-09-06T19:13:11.555Z,23.89
2023-09-06T19:15:39.530Z,23.90
2023-09-06T19:18:07.572Z,23.89
2023-09-06T19:20:37.276Z,23.90
2023-09-06T19:23:07.634Z,23.91
2023-09-06T19:25:38.194Z,23.91
2023-09-06T19:28:08.046Z,23.85
2023-09-06T19:30:34.829Z,23.85
2023-09-06T19:33:01.588Z,23.88
2023-09-06T19:35:28.219Z,23.90
2023-09-06T19:37:54.865Z,23.78
2023-09-06T19:40:22.462Z,23.70
2023-09-06T19:42:52.695Z,23.70
2023-09-06T19:45:19.371Z,23.67
2023-09-06T19:47:47.593Z,23.69
2023-09-06T19:50:14.319Z,23.57
2023-09-06T19:52:40.846Z,23.53
2023-09-06T19:55:07.994Z,23.46
2023-09-06T19:57:34.974Z,23.36
2023-09-06T20:00:02.236Z,23.17
2023-09-06T20:02:29.022Z,23.04
2023-09-06T20:04:55.812Z,22.79
2023-09-06T20:07:22.430Z,22.66
2023-09-06T20:09:48.993Z,22.77
2023-09-06T20:12:15.524Z,22.80
2023-09-06T20:14:42.067Z,22.79
2023-09-06T20:17:08.701Z,22.75
2023-09-06T20:19:35.241Z,22.82
2023-09-06T20:22:01.891Z,22.81
2023-09-06T20:24:28.454Z,22.81
2023-09-06T20:26:55.114Z,22.85
2023-09-06T20:29:27.127Z,22.71
2023-09-06T20:31:53.750Z,22.47
2023-09-06T20:34:20.306Z,22.27
2023-09-06T20:36:47.389Z,22.13
2023-09-06T20:39:13.990Z,21.98
2023-09-06T20:41:42.308Z,21.88
2023-09-06T20:44:08.950Z,21.96
2023-09-06T20:46:35.588Z,22.03
2023-09-06T20:49:02.309Z,22.14
2023-09-06T20:51:28.850Z,22.34
2023-09-06T20:53:55.447Z,22.35
2023-09-06T20:56:21.983Z,22.48
2023-09-06T20:58:48.553Z,22.57
2023-09-06T21:01:19.432Z,22.70
2023-09-06T21:03:47.036Z,22.78
2023-09-06T21:06:13.665Z,22.85
2023-09-06T21:08:40.622Z,22.93
2023-09-06T21:11:07.222Z,22.99
2023-09-06T21:13:36.649Z,22.99
2023-09-06T21:16:03.369Z,23.04
2023-09-06T21:18:30.894Z,23.07
2023-09-06T21:20:58.039Z,23.09
2023-09-06T21:23:24.714Z,23.13
2023-09-06T21:25:51.471Z,23.14
2023-09-06T21:28:18.093Z,23.16
2023-09-06T21:30:47.136Z,23.17
2023-09-06T21:33:14.818Z,23.21
2023-09-06T21:35:43.091Z,23.23
2023-09-06T21:38:10.381Z,23.24
2023-09-06T21:40:45.350Z,23.23
2023-09-06T21:43:17.678Z,23.21
2023-09-06T21:45:45.418Z,23.25
2023-09-06T21:48:12.549Z,23.26
2023-09-06T21:50:41.392Z,23.27
2023-09-06T21:53:08.389Z,23.21
2023-09-06T21:55:35.229Z,23.20
2023-09-06T21:58:09.800Z,23.14
2023-09-06T22:00:37.643Z,23.08
2023-09-06T22:03:04.756Z,22.98
2023-09-06T22:05:31.464Z,22.76
2023-09-06T22:07:58.063Z,22.52
2023-09-06T22:10:24.782Z,22.41
2023-09-06T22:12:51.988Z,22.30
2023-09-06T22:15:18.937Z,22.24
2023-09-06T22:17:45.581Z,22.26
2023-09-06T22:20:12.547Z,22.21
2023-09-06T22:22:39.406Z,22.16
2023-09-06T22:25:07.325Z,22.09
2023-09-06T22:27:34.600Z,21.96
2023-09-06T22:30:01.727Z,21.91
2023-09-06T22:32:28.329Z,21.83
2023-09-06T22:34:55.066Z,21.80
2023-09-06T22:37:21.740Z,21.76
2023-09-06T22:39:48.443Z,21.69
2023-09-06T22:42:15.061Z,21.65
2023-09-06T22:44:41.818Z,21.61
2023-09-06T22:47:09.656Z,21.57
2023-09-06T22:49:38.663Z,21.52
2023-09-06T22:52:07.743Z,21.51
2023-09-06T22:54:39.667Z,21.46
2023-09-06T22:57:07.619Z,21.36
2023-09-06T22:59:35.020Z,21.26
2023-09-06T23:02:01.647Z,21.17
2023-09-06T23:04:28.717Z,21.10
2023-09-06T23:06:55.745Z,21.04
2023-09-06T23:09:22.442Z,20.96
2023-09-06T23:11:56.907Z,20.99
2023-09-06T23:14:24.851Z,20.98
2023-09-06T23:16:52.196Z,20.92
2023-09-06T23:19:28.796Z,20.87
2023-09-06T23:21:59.774Z,20.79
2023-09-06T23:24:28.861Z,20.82
2023-09-06T23:27:00.337Z,20.88
2023-09-06T23:29:35.842Z,20.81
2023-09-06T23:32:06.022Z,20.77
2023-09-06T23:34:35.365Z,20.71
2023-09-06T23:37:05.289Z,20.54
2023-09-06T23:39:34.366Z,20.43
2023-09-06T23:42:10.846Z,20.38
2023-09-06T23:44:43.287Z,20.29
2023-09-06T23:47:10.581Z,20.23
2023-09-06T23:49:38.188Z,20.22
2023-09-06T23:52:05.718Z,20.33
2023-09-06T23:54:44.739Z,20.35
2023-09-06T23:57:14.235Z,20.31
2023-09-06T23:59:40.812Z,20.25
